Time;durP1;ratioP1;P1;durP2;ratioP2;P2;SDS_P1;SDS_P2;PMS_P1;PMS_P2;Temp;Humidity;BMP_temperature;BMP_pressure;BME280_temperature;BME280_humidity;BME280_pressure;Samples;Min_cycle;Max_cycle;Signal;HPM_P1;HPM_P2
2021/11/18 00:00:33;;;;;;;9.20;2.90;;;;;;;;;;5026421;28;20021;-62
2021/11/18 00:03:00;;;;;;;6.17;2.60;;;;;;;;;;5026766;28;20064;-62
2021/11/18 00:05:27;;;;;;;6.80;3.23;;;;;;;;;;5026859;28;20021;-62
2021/11/18 00:07:55;;;;;;;8.03;3.77;;;;;;;;;;5027529;28;20151;-61
2021/11/18 00:10:26;;;;;;;10.43;4.23;;;;;;;;;;5031877;28;20032;-62
2021/11/18 00:12:55;;;;;;;6.43;2.80;;;;;;;;;;5035007;28;20017;-61
2021/11/18 00:15:25;;;;;;;33.20;4.93;;;;;;;;;;5035041;28;20030;-62
2021/11/18 00:17:58;;;;;;;82.60;7.77;;;;;;;;;;5034789;28;20037;-62
2021/11/18 00:20:26;;;;;;;40.93;6.10;;;;;;;;;;5035041;28;20084;-63
2021/11/18 00:23:10;;;;;;;23.23;5.77;;;;;;;;;;5033483;28;20427;-62
2021/11/18 00:25:40;;;;;;;20.52;5.07;;;;;;;;;;5029980;28;20022;-62
2021/11/18 00:28:06;;;;;;;11.17;3.20;;;;;;;;;;5030040;28;20029;-62
2021/11/18 00:30:33;;;;;;;10.60;2.97;;;;;;;;;;5029990;28;20044;-62
2021/11/18 00:33:09;;;;;;;42.07;6.23;;;;;;;;;;5029961;28;20507;-62
2021/11/18 00:35:39;;;;;;;32.40;4.10;;;;;;;;;;5032579;28;20029;-62
2021/11/18 00:38:05;;;;;;;7.67;2.40;;;;;;;;;;5034635;28;20040;-61
2021/11/18 00:40:34;;;;;;;10.90;2.80;;;;;;;;;;5035004;28;20087;-62
2021/11/18 00:43:01;;;;;;;13.57;3.20;;;;;;;;;;5034372;28;20408;-61
2021/11/18 00:45:37;;;;;;;11.33;2.97;;;;;;;;;;5034577;28;20029;-61
2021/11/18 00:48:04;;;;;;;5.23;2.70;;;;;;;;;;5032185;28;20476;-61
2021/11/18 00:50:33;;;;;;;12.47;2.90;;;;;;;;;;5029060;28;20508;-61
2021/11/18 00:53:02;;;;;;;70.47;8.47;;;;;;;;;;5029309;28;20087;-61
2021/11/18 00:55:30;;;;;;;11.13;2.10;;;;;;;;;;5029518;28;20076;-61
2021/11/18 00:57:56;;;;;;;7.43;2.73;;;;;;;;;;5029482;28;20021;-61
2021/11/18 01:00:25;;;;;;;10.73;2.93;;;;;;;;;;5031838;28;20025;-61
2021/11/18 01:03:02;;;;;;;9.97;2.10;;;;;;;;;;5034194;28;20033;-61
2021/11/18 01:05:32;;;;;;;3.30;1.70;;;;;;;;;;5033929;28;20929;-61
2021/11/18 01:07:59;;;;;;;9.27;2.30;;;;;;;;;;5033687;28;20029;-61
2021/11/18 01:10:32;;;;;;;9.80;2.40;;;;;;;;;;5034127;28;20029;-61
2021/11/18 01:12:59;;;;;;;12.77;2.40;;;;;;;;;;5029760;28;20045;-61
2021/11/18 01:15:29;;;;;;;9.17;2.23;;;;;;;;;;5028752;28;20030;-61
2021/11/18 01:17:56;;;;;;;8.30;2.27;;;;;;;;;;5028241;28;20025;-61
2021/11/18 01:20:26;;;;;;;8.83;2.47;;;;;;;;;;5027180;28;20033;-61
2021/11/18 01:22:54;;;;;;;12.33;3.03;;;;;;;;;;5031923;28;20075;-61
2021/11/18 01:25:21;;;;;;;4.60;2.33;;;;;;;;;;5033780;28;20032;-61
2021/11/18 01:27:48;;;;;;;14.20;2.73;;;;;;;;;;5033683;28;20539;-61
2021/11/18 01:30:18;;;;;;;4.70;1.90;;;;;;;;;;5033698;28;20041;-61
2021/11/18 01:32:45;;;;;;;15.83;5.77;;;;;;;;;;5033501;28;20037;-61
2021/11/18 01:35:11;;;;;;;5.80;2.63;;;;;;;;;;5029499;28;20029;-61
2021/11/18 01:37:38;;;;;;;7.90;3.00;;;;;;;;;;5028100;28;20025;-61
2021/11/18 01:40:07;;;;;;;12.37;6.07;;;;;;;;;;5027930;28;20427;-61
2021/11/18 01:42:33;;;;;;;9.63;3.47;;;;;;;;;;5027864;28;20385;-61
2021/11/18 01:45:00;;;;;;;7.40;2.37;;;;;;;;;;5031402;28;20026;-61
2021/11/18 01:47:29;;;;;;;5.10;2.50;;;;;;;;;;5032791;28;20018;-61
2021/11/18 01:49:56;;;;;;;6.87;2.80;;;;;;;;;;5033144;28;20030;-61
2021/11/18 01:52:24;;;;;;;4.70;2.23;;;;;;;;;;5033302;28;20041;-61
2021/11/18 01:54:52;;;;;;;9.33;2.43;;;;;;;;;;5033050;28;20029;-61
2021/11/18 01:57:24;;;;;;;6.10;3.20;;;;;;;;;;5029338;28;20022;-61
2021/11/18 01:59:51;;;;;;;10.80;2.67;;;;;;;;;;5027613;28;20038;-61
2021/11/18 02:02:18;;;;;;;4.40;2.30;;;;;;;;;;5027064;28;20026;-61
2021/11/18 02:04:49;;;;;;;7.47;2.37;;;;;;;;;;5027586;28;20037;-61
2021/11/18 02:07:16;;;;;;;9.43;3.60;;;;;;;;;;5030858;28;20419;-61
2021/11/18 02:09:48;;;;;;;3.53;1.97;;;;;;;;;;5032888;28;20083;-61
2021/11/18 02:12:18;;;;;;;6.03;2.03;;;;;;;;;;5032899;28;20037;-61
2021/11/18 02:14:45;;;;;;;5.67;2.33;;;;;;;;;;5032445;28;20105;-61
2021/11/18 02:17:14;;;;;;;5.30;2.07;;;;;;;;;;5032783;28;20487;-62
2021/11/18 02:19:46;;;;;;;8.03;2.77;;;;;;;;;;5028355;28;20030;-61
2021/11/18 02:22:13;;;;;;;6.90;2.67;;;;;;;;;;5027343;28;20029;-61
2021/11/18 02:24:45;;;;;;;7.70;2.93;;;;;;;;;;5026935;28;20345;-61
2021/11/18 02:27:13;;;;;;;6.97;2.70;;;;;;;;;;5027045;28;20030;-61
2021/11/18 02:29:40;;;;;;;8.67;4.00;;;;;;;;;;5031014;28;20030;-61
2021/11/18 02:32:09;;;;;;;8.53;3.47;;;;;;;;;;5032228;28;20378;-61
2021/11/18 02:34:39;;;;;;;9.27;3.07;;;;;;;;;;5032675;28;20025;-61
2021/11/18 02:37:06;;;;;;;7.57;3.27;;;;;;;;;;5032592;28;20033;-61
2021/11/18 02:39:34;;;;;;;8.60;4.30;;;;;;;;;;5032726;28;20433;-61
2021/11/18 02:42:01;;;;;;;11.57;4.30;;;;;;;;;;5027416;28;20496;-61
2021/11/18 02:44:29;;;;;;;10.23;3.40;;;;;;;;;;5026867;28;20017;-61
2021/11/18 02:46:57;;;;;;;5.03;3.30;;;;;;;;;;5026917;28;20495;-60
2021/11/18 02:49:24;;;;;;;7.33;3.50;;;;;;;;;;5026692;28;20084;-61
2021/11/18 02:52:10;;;;;;;5.23;3.10;;;;;;;;;;5030379;28;20037;-61
2021/11/18 02:54:39;;;;;;;7.70;2.53;;;;;;;;;;5031302;28;20037;-61
2021/11/18 02:57:07;;;;;;;6.50;2.77;;;;;;;;;;5032118;28;20116;-61
2021/11/18 02:59:36;;;;;;;8.67;2.80;;;;;;;;;;5031979;28;20495;-61
2021/11/18 03:02:04;;;;;;;4.87;2.63;;;;;;;;;;5032210;28;20067;-61
2021/11/18 03:04:31;;;;;;;6.83;3.07;;;;;;;;;;5026909;28;20417;-61
2021/11/18 03:07:00;;;;;;;7.67;3.00;;;;;;;;;;5026641;28;20029;-61
2021/11/18 03:09:27;;;;;;;8.60;5.30;;;;;;;;;;5026204;28;20042;-62
2021/11/18 03:11:54;;;;;;;6.90;3.63;;;;;;;;;;5026418;28;20456;-61
2021/11/18 03:14:21;;;;;;;6.60;2.97;;;;;;;;;;5031118;28;20101;-61
2021/11/18 03:16:49;;;;;;;7.23;2.80;;;;;;;;;;5030666;28;20491;-61
2021/11/18 03:19:16;;;;;;;9.43;3.23;;;;;;;;;;5032107;28;20503;-61
2021/11/18 03:21:42;;;;;;;5.00;2.43;;;;;;;;;;5032012;28;20477;-61
2021/11/18 03:24:09;;;;;;;6.70;2.80;;;;;;;;;;5031720;28;20030;-61
2021/11/18 03:26:36;;;;;;;14.43;2.87;;;;;;;;;;5026916;28;20022;-60
2021/11/18 03:29:04;;;;;;;8.63;2.57;;;;;;;;;;5026533;28;20021;-60
2021/11/18 03:31:31;;;;;;;5.73;2.67;;;;;;;;;;5024967;28;20432;-60
2021/11/18 03:34:02;;;;;;;7.37;2.40;;;;;;;;;;5026134;28;20371;-60
2021/11/18 03:36:48;;;;;;;7.60;2.67;;;;;;;;;;5030884;28;20025;-61
2021/11/18 03:39:17;;;;;;;4.97;2.90;;;;;;;;;;5031814;28;20544;-62
2021/11/18 03:41:45;;;;;;;6.63;2.00;;;;;;;;;;5031911;28;20025;-61
2021/11/18 03:44:13;;;;;;;12.30;2.60;;;;;;;;;;5034743;28;20029;-61
2021/11/18 03:46:42;;;;;;;7.90;3.17;;;;;;;;;;5035623;28;20037;-60
2021/11/18 03:49:10;;;;;;;9.63;3.20;;;;;;;;;;5029600;28;20104;-60
2021/11/18 03:51:37;;;;;;;9.07;2.77;;;;;;;;;;5029961;28;20551;-61
2021/11/18 03:54:06;;;;;;;11.20;2.80;;;;;;;;;;5030125;28;20018;-60
2021/11/18 03:56:38;;;;;;;6.30;2.43;;;;;;;;;;5029776;28;20025;-61
2021/11/18 03:59:07;;;;;;;17.73;2.97;;;;;;;;;;5035306;28;20032;-60
2021/11/18 04:01:37;;;;;;;17.53;3.70;;;;;;;;;;5035279;28;20096;-60
2021/11/18 04:04:08;;;;;;;5.60;2.10;;;;;;;;;;5035290;28;20546;-60
2021/11/18 04:06:35;;;;;;;14.20;4.67;;;;;;;;;;5035187;28;20026;-60
2021/11/18 04:09:02;;;;;;;10.47;3.10;;;;;;;;;;5033860;28;20416;-60
2021/11/18 04:11:29;;;;;;;5.73;2.77;;;;;;;;;;5029677;28;20052;-60
2021/11/18 04:13:56;;;;;;;6.40;2.60;;;;;;;;;;5029677;28;20133;-60
2021/11/18 04:16:23;;;;;;;4.63;2.40;;;;;;;;;;5029458;28;20127;-60
2021/11/18 04:18:50;;;;;;;4.10;2.33;;;;;;;;;;5029342;28;20088;-60
2021/11/18 04:21:37;;;;;;;5.13;2.53;;;;;;;;;;5034864;28;20059;-60
2021/11/18 04:24:05;;;;;;;8.40;2.70;;;;;;;;;;5034748;28;20029;-60
2021/11/18 04:26:32;;;;;;;4.20;2.00;;;;;;;;;;5034961;28;20538;-60
2021/11/18 04:28:59;;;;;;;3.50;1.87;;;;;;;;;;5034393;28;20013;-60
2021/11/18 04:31:29;;;;;;;5.83;2.60;;;;;;;;;;5033796;28;20143;-60
2021/11/18 04:33:57;;;;;;;5.37;2.17;;;;;;;;;;5029271;28;20029;-60
2021/11/18 04:36:26;;;;;;;6.13;2.13;;;;;;;;;;5029249;28;20477;-60
2021/11/18 04:38:54;;;;;;;6.37;2.37;;;;;;;;;;5029245;28;20480;-60
2021/11/18 04:41:22;;;;;;;4.63;2.00;;;;;;;;;;5029228;28;20120;-59
2021/11/18 04:43:49;;;;;;;6.27;3.00;;;;;;;;;;5033275;28;20124;-60
2021/11/18 04:46:20;;;;;;;6.83;2.93;;;;;;;;;;5033762;28;20021;-60
2021/11/18 04:48:48;;;;;;;8.67;3.20;;;;;;;;;;5034429;28;20112;-60
2021/11/18 04:51:17;;;;;;;6.33;2.60;;;;;;;;;;5034369;28;20083;-60
2021/11/18 04:53:43;;;;;;;5.87;2.60;;;;;;;;;;5032969;28;20033;-60
2021/11/18 04:56:10;;;;;;;6.80;2.70;;;;;;;;;;5028535;28;20037;-60
2021/11/18 04:58:37;;;;;;;5.00;2.57;;;;;;;;;;5028878;28;20108;-60
2021/11/18 05:01:04;;;;;;;7.43;3.03;;;;;;;;;;5028655;28;20033;-59
2021/11/18 05:03:32;;;;;;;14.00;4.30;;;;;;;;;;5029469;28;20025;-58
2021/11/18 05:05:58;;;;;;;12.20;4.20;;;;;;;;;;5034092;28;20369;-58
2021/11/18 05:08:25;;;;;;;7.23;2.90;;;;;;;;;;5034049;28;20053;-58
2021/11/18 05:10:54;;;;;;;4.37;2.30;;;;;;;;;;5033390;28;20030;-59
2021/11/18 05:13:23;;;;;;;3.83;2.37;;;;;;;;;;5033947;28;20032;-58
2021/11/18 05:15:50;;;;;;;5.47;2.90;;;;;;;;;;5032822;28;20029;-58
2021/11/18 05:18:18;;;;;;;10.27;2.80;;;;;;;;;;5028457;28;20028;-59
2021/11/18 05:20:45;;;;;;;8.40;2.90;;;;;;;;;;5028543;28;20518;-58
2021/11/18 05:23:13;;;;;;;7.67;3.00;;;;;;;;;;5028731;28;20024;-58
2021/11/18 05:25:40;;;;;;;6.73;3.33;;;;;;;;;;5028137;28;20029;-59
2021/11/18 05:28:06;;;;;;;6.43;3.07;;;;;;;;;;5033780;28;20029;-58
2021/11/18 05:30:34;;;;;;;10.73;3.30;;;;;;;;;;5033613;28;20037;-58
2021/11/18 05:33:02;;;;;;;6.50;3.47;;;;;;;;;;5033472;28;20037;-58
2021/11/18 05:35:30;;;;;;;4.67;2.10;;;;;;;;;;5033816;28;20014;-58
2021/11/18 05:37:59;;;;;;;7.53;2.83;;;;;;;;;;5032428;28;20579;-58
2021/11/18 05:40:26;;;;;;;5.53;2.37;;;;;;;;;;5027776;28;20048;-60
2021/11/18 05:42:53;;;;;;;8.73;2.80;;;;;;;;;;5028154;28;20100;-58
2021/11/18 05:45:23;;;;;;;4.37;2.60;;;;;;;;;;5028237;28;20048;-59
2021/11/18 05:47:49;;;;;;;5.23;2.10;;;;;;;;;;5027680;28;20025;-59
2021/11/18 05:50:16;;;;;;;6.60;3.10;;;;;;;;;;5033046;28;20029;-58
2021/11/18 05:52:44;;;;;;;4.50;2.13;;;;;;;;;;5032856;28;20029;-59
2021/11/18 05:55:12;;;;;;;6.47;2.40;;;;;;;;;;5032910;28;20029;-58
2021/11/18 05:57:42;;;;;;;5.23;2.13;;;;;;;;;;5033385;28;20021;-59
2021/11/18 06:00:10;;;;;;;7.00;3.17;;;;;;;;;;5032566;28;20546;-58
2021/11/18 06:02:46;;;;;;;5.40;2.70;;;;;;;;;;5027747;28;20087;-58
2021/11/18 06:05:18;;;;;;;4.27;2.43;;;;;;;;;;5027149;28;20027;-58
2021/11/18 06:07:45;;;;;;;6.17;2.93;;;;;;;;;;5027141;28;20045;-58
2021/11/18 06:10:13;;;;;;;6.13;2.80;;;;;;;;;;5028225;28;20034;-58
2021/11/18 06:12:40;;;;;;;5.20;2.57;;;;;;;;;;5032567;28;20021;-58
2021/11/18 06:15:09;;;;;;;3.93;2.17;;;;;;;;;;5033167;28;20056;-58
2021/11/18 06:17:36;;;;;;;3.37;2.17;;;;;;;;;;5032736;28;20025;-58
2021/11/18 06:20:04;;;;;;;4.10;1.80;;;;;;;;;;5032704;28;20022;-58
2021/11/18 06:22:30;;;;;;;5.37;2.63;;;;;;;;;;5030683;28;20029;-58
2021/11/18 06:24:57;;;;;;;6.60;3.00;;;;;;;;;;5027059;28;20036;-58
2021/11/18 06:27:24;;;;;;;4.27;2.27;;;;;;;;;;5027439;28;20125;-59
2021/11/18 06:29:51;;;;;;;4.07;2.30;;;;;;;;;;5027249;28;20037;-58
2021/11/18 06:35:22;;;;;;;5.27;1.93;;;;;;;;;;5031952;28;20376;-58
2021/11/18 06:37:49;;;;;;;4.57;2.37;;;;;;;;;;5032515;28;20068;-58
2021/11/18 06:40:18;;;;;;;5.37;2.43;;;;;;;;;;5032315;28;20045;-58
2021/11/18 06:42:45;;;;;;;5.53;2.40;;;;;;;;;;5032509;28;20022;-58
2021/11/18 06:45:13;;;;;;;3.47;1.93;;;;;;;;;;5029066;28;20100;-58
2021/11/18 06:47:43;;;;;;;4.63;2.20;;;;;;;;;;5027036;28;20041;-58
2021/11/18 06:50:10;;;;;;;3.90;1.93;;;;;;;;;;5026905;28;20045;-58
2021/11/18 06:52:37;;;;;;;5.00;2.50;;;;;;;;;;5026541;28;20029;-58
2021/11/18 06:55:05;;;;;;;5.23;2.47;;;;;;;;;;5028621;28;20029;-58
2021/11/18 06:57:32;;;;;;;5.63;2.60;;;;;;;;;;5032262;28;20030;-58
2021/11/18 07:00:09;;;;;;;6.20;2.67;;;;;;;;;;5031727;28;20026;-58
2021/11/18 07:02:35;;;;;;;5.10;2.03;;;;;;;;;;5031756;28;20033;-58
2021/11/18 07:05:10;;;;;;;5.20;2.03;;;;;;;;;;5032274;28;20029;-58
2021/11/18 07:07:37;;;;;;;3.90;1.90;;;;;;;;;;5029527;28;20079;-59
2021/11/18 07:10:05;;;;;;;6.87;2.43;;;;;;;;;;5026590;28;20361;-58
2021/11/18 07:12:31;;;;;;;7.63;2.63;;;;;;;;;;5026390;28;20427;-58
2021/11/18 07:14:59;;;;;;;8.63;2.63;;;;;;;;;;5026519;28;20415;-58
2021/11/18 07:17:26;;;;;;;5.43;2.43;;;;;;;;;;5029209;28;20018;-59
2021/11/18 07:20:00;;;;;;;10.47;3.60;;;;;;;;;;5036059;28;20029;-58
2021/11/18 07:22:30;;;;;;;4.43;2.67;;;;;;;;;;5035999;28;20022;-58
2021/11/18 07:24:57;;;;;;;7.13;3.10;;;;;;;;;;5035808;28;20044;-58
2021/11/18 07:27:24;;;;;;;10.03;3.13;;;;;;;;;;5036235;28;20028;-58
2021/11/18 07:29:53;;;;;;;14.43;3.60;;;;;;;;;;5033140;28;20083;-58
2021/11/18 07:32:20;;;;;;;7.17;3.30;;;;;;;;;;5030073;28;20079;-58
2021/11/18 07:34:47;;;;;;;8.00;3.53;;;;;;;;;;5030385;28;20081;-58
2021/11/18 07:37:14;;;;;;;5.77;3.20;;;;;;;;;;5030530;28;20017;-58
2021/11/18 07:39:41;;;;;;;5.47;2.67;;;;;;;;;;5032639;28;20064;-58
2021/11/18 07:42:08;;;;;;;10.73;3.37;;;;;;;;;;5035482;28;20376;-58
2021/11/18 07:44:34;;;;;;;5.80;2.53;;;;;;;;;;5035433;28;20511;-58
2021/11/18 07:47:01;;;;;;;6.97;2.77;;;;;;;;;;5035695;28;20026;-58
2021/11/18 07:49:28;;;;;;;7.73;3.13;;;;;;;;;;5035465;28;20467;-58
2021/11/18 07:51:55;;;;;;;6.07;3.03;;;;;;;;;;5032854;28;20034;-58
2021/11/18 07:54:24;;;;;;;6.23;2.50;;;;;;;;;;5029514;28;20270;-58
2021/11/18 07:56:51;;;;;;;6.57;2.53;;;;;;;;;;5030095;28;20304;-58
2021/11/18 07:59:18;;;;;;;7.87;3.33;;;;;;;;;;5030194;28;20263;-58
2021/11/18 08:01:45;;;;;;;8.57;3.33;;;;;;;;;;5032083;28;20018;-58
2021/11/18 08:04:12;;;;;;;7.67;3.27;;;;;;;;;;5034936;28;20630;-58
2021/11/18 08:06:39;;;;;;;7.23;3.00;;;;;;;;;;5035145;28;20259;-58
2021/11/18 08:09:10;;;;;;;5.63;2.73;;;;;;;;;;5034805;28;20044;-58
2021/11/18 08:11:38;;;;;;;5.50;2.63;;;;;;;;;;5035018;28;20289;-58
2021/11/18 08:14:06;;;;;;;5.40;2.57;;;;;;;;;;5031827;28;20025;-59
2021/11/18 08:16:33;;;;;;;6.17;3.07;;;;;;;;;;5029722;28;20250;-58
2021/11/18 08:19:00;;;;;;;10.17;3.00;;;;;;;;;;5029751;28;20273;-58
2021/11/18 08:21:27;;;;;;;7.83;2.97;;;;;;;;;;5029671;28;20597;-58
2021/11/18 08:23:54;;;;;;;6.13;2.70;;;;;;;;;;5030713;28;20259;-58
2021/11/18 08:26:21;;;;;;;5.50;2.90;;;;;;;;;;5034983;28;20290;-57
2021/11/18 08:28:48;;;;;;;5.50;2.63;;;;;;;;;;5034309;28;20330;-58
2021/11/18 08:31:15;;;;;;;5.90;2.60;;;;;;;;;;5034837;28;20333;-58
2021/11/18 08:33:43;;;;;;;9.07;4.87;;;;;;;;;;5034500;28;20318;-58
2021/11/18 08:36:09;;;;;;;5.13;2.60;;;;;;;;;;5032103;28;20271;-58
2021/11/18 08:38:36;;;;;;;8.47;2.90;;;;;;;;;;5028827;28;20258;-58
2021/11/18 08:41:07;;;;;;;7.07;2.83;;;;;;;;;;5029151;28;20271;-58
2021/11/18 08:43:35;;;;;;;8.27;2.77;;;;;;;;;;5029356;28;20265;-58
2021/11/18 08:46:03;;;;;;;5.77;3.00;;;;;;;;;;5031056;28;20324;-58
2021/11/18 08:48:31;;;;;;;3.70;2.40;;;;;;;;;;5034508;28;20270;-58
2021/11/18 08:50:58;;;;;;;5.73;2.87;;;;;;;;;;5034438;28;20290;-58
2021/11/18 08:53:26;;;;;;;5.83;2.10;;;;;;;;;;5034072;28;20656;-58
2021/11/18 08:55:53;;;;;;;4.33;2.53;;;;;;;;;;5033706;28;20275;-58
2021/11/18 08:58:23;;;;;;;6.07;3.27;;;;;;;;;;5031472;28;20361;-58
2021/11/18 09:00:50;;;;;;;6.67;2.67;;;;;;;;;;5028850;28;20255;-58
2021/11/18 09:03:18;;;;;;;5.87;2.77;;;;;;;;;;5028840;28;20637;-58
2021/11/18 09:05:45;;;;;;;5.23;2.73;;;;;;;;;;5028821;28;20255;-58
2021/11/18 09:08:12;;;;;;;6.87;2.77;;;;;;;;;;5030294;28;20258;-58
2021/11/18 09:10:39;;;;;;;4.20;2.53;;;;;;;;;;5034020;28;20290;-58
2021/11/18 09:13:07;;;;;;;4.63;2.60;;;;;;;;;;5033922;28;20258;-58
2021/11/18 09:15:35;;;;;;;7.13;2.60;;;;;;;;;;5033987;28;20255;-58
2021/11/18 09:18:02;;;;;;;5.67;3.20;;;;;;;;;;5033674;28;20267;-58
2021/11/18 09:20:30;;;;;;;4.30;2.50;;;;;;;;;;5031122;28;20262;-58
2021/11/18 09:22:59;;;;;;;8.83;2.97;;;;;;;;;;5028283;28;20617;-58
2021/11/18 09:25:28;;;;;;;3.50;1.70;;;;;;;;;;5028386;28;20259;-58
2021/11/18 09:27:55;;;;;;;5.10;2.57;;;;;;;;;;5028392;28;20259;-58
2021/11/18 09:30:27;;;;;;;5.50;2.57;;;;;;;;;;5029679;28;20290;-58
2021/11/18 09:32:55;;;;;;;4.67;2.70;;;;;;;;;;5033851;28;20333;-58
2021/11/18 09:35:42;;;;;;;4.40;2.43;;;;;;;;;;5033375;28;20649;-57
2021/11/18 09:38:09;;;;;;;7.40;2.80;;;;;;;;;;5033435;28;20609;-58
2021/11/18 09:40:39;;;;;;;4.27;2.37;;;;;;;;;;5032281;28;20614;-58
2021/11/18 09:43:06;;;;;;;6.07;3.17;;;;;;;;;;5030089;28;20300;-58
2021/11/18 09:45:36;;;;;;;5.33;2.80;;;;;;;;;;5027424;28;20345;-58
2021/11/18 09:48:09;;;;;;;6.07;2.93;;;;;;;;;;5027795;28;20251;-59
2021/11/18 09:50:48;;;;;;;7.33;3.13;;;;;;;;;;5027684;28;20290;-58
2021/11/18 09:53:33;;;;;;;6.27;3.30;;;;;;;;;;5031544;28;20270;-57
2021/11/18 09:56:18;;;;;;;5.57;2.63;;;;;;;;;;5033121;28;20308;-58
2021/11/18 09:58:45;;;;;;;5.50;2.65;;;;;;;;;;5033220;28;20101;-58
2021/11/18 10:01:30;;;;;;;8.53;3.33;;;;;;;;;;5032920;28;20021;-58
2021/11/18 10:04:05;;;;;;;5.05;2.72;;;;;;;;;;5032581;28;20307;-58
2021/11/18 10:06:36;;;;;;;6.57;3.15;;;;;;;;;;5027575;28;20111;-58
2021/11/18 10:09:26;;;;;;;12.17;3.50;;;;;;;;;;5027760;28;20096;-58
2021/11/18 10:12:07;;;;;;;6.47;2.87;;;;;;;;;;5026563;28;20305;-58
2021/11/18 10:14:42;;;;;;;7.23;3.20;;;;;;;;;;5029388;28;20278;-58
2021/11/18 10:17:21;;;;;;;6.13;3.20;;;;;;;;;;5032976;28;20274;-57
2021/11/18 10:19:50;;;;;;;8.20;3.17;;;;;;;;;;5013063;28;20372;-58
2021/11/18 10:22:19;;;;;;;8.70;3.33;;;;;;;;;;5013076;28;20271;-58
2021/11/18 10:24:47;;;;;;;5.23;3.13;;;;;;;;;;5013028;28;20306;-58
2021/11/18 10:27:27;;;;;;;5.27;2.87;;;;;;;;;;5009826;28;20263;-58
2021/11/18 10:29:58;;;;;;;5.60;2.90;;;;;;;;;;5007623;28;20259;-58
2021/11/18 10:32:30;;;;;;;6.73;3.07;;;;;;;;;;5007382;28;20270;-58
2021/11/18 10:35:00;;;;;;;7.83;3.57;;;;;;;;;;5007469;28;20259;-58
2021/11/18 10:37:31;;;;;;;6.03;2.90;;;;;;;;;;5011055;28;20252;-58
2021/11/18 10:39:58;;;;;;;6.27;3.57;;;;;;;;;;5031951;28;20270;-58
2021/11/18 10:42:28;;;;;;;5.43;2.80;;;;;;;;;;5032311;28;20286;-57
2021/11/18 10:45:02;;;;;;;9.70;3.73;;;;;;;;;;5032189;28;20266;-58
2021/11/18 10:47:31;;;;;;;5.97;3.10;;;;;;;;;;5032576;28;20262;-57
2021/11/18 10:50:06;;;;;;;8.03;3.60;;;;;;;;;;5027822;28;20640;-57
2021/11/18 10:52:45;;;;;;;4.23;2.33;;;;;;;;;;5026712;28;20281;-58
2021/11/18 10:55:15;;;;;;;4.67;2.77;;;;;;;;;;5026397;28;20737;-58
2021/11/18 10:57:53;;;;;;;4.53;2.47;;;;;;;;;;5026841;28;20259;-57
2021/11/18 11:00:25;;;;;;;6.37;3.63;;;;;;;;;;5031622;28;20270;-57
2021/11/18 11:02:52;;;;;;;6.20;3.57;;;;;;;;;;5032300;28;20322;-59
2021/11/18 11:05:32;;;;;;;6.53;3.47;;;;;;;;;;5032148;28;20259;-58
2021/11/18 11:08:00;;;;;;;6.10;2.63;;;;;;;;;;5031914;28;20271;-58
2021/11/18 11:10:28;;;;;;;5.07;3.13;;;;;;;;;;5031476;28;20283;-58
2021/11/18 11:13:15;;;;;;;6.57;3.60;;;;;;;;;;5026274;28;20255;-58
2021/11/18 11:15:41;;;;;;;10.23;2.97;;;;;;;;;;5026801;28;20269;-57
2021/11/18 11:18:17;;;;;;;6.33;2.90;;;;;;;;;;5026578;28;20257;-58
2021/11/18 11:20:51;;;;;;;9.50;2.90;;;;;;;;;;5027115;28;20702;-58
2021/11/18 11:23:37;;;;;;;7.20;3.03;;;;;;;;;;5031928;28;20275;-58
2021/11/18 11:26:22;;;;;;;5.40;3.00;;;;;;;;;;5031990;28;20301;-57
2021/11/18 11:28:59;;;;;;;9.00;3.50;;;;;;;;;;5031738;28;20013;-58
2021/11/18 11:31:44;;;;;;;7.27;3.50;;;;;;;;;;5031841;28;20061;-57
2021/11/18 11:34:16;;;;;;;6.50;3.50;;;;;;;;;;5028129;28;20657;-57
2021/11/18 11:36:43;;;;;;;8.70;4.60;;;;;;;;;;5026508;28;20121;-58
2021/11/18 11:39:28;;;;;;;7.07;3.43;;;;;;;;;;5026664;28;20342;-57
2021/11/18 11:42:15;;;;;;;7.95;3.15;;;;;;;;;;5026010;28;20294;-58
2021/11/18 11:45:02;;;;;;;6.73;3.50;;;;;;;;;;5030952;28;20112;-57
2021/11/18 11:47:29;;;;;;;6.00;3.23;;;;;;;;;;5031661;28;20259;-57
2021/11/18 11:50:03;;;;;;;5.70;3.00;;;;;;;;;;5031799;28;20286;-57
2021/11/18 11:53:05;;;;;;;6.33;3.63;;;;;;;;;;5031379;28;20279;-57
2021/11/18 11:55:50;;;;;;;6.53;3.60;;;;;;;;;;5025924;28;20278;-57
2021/11/18 11:58:29;;;;;;;5.80;3.42;;;;;;;;;;5007731;28;20349;-58
2021/11/18 12:01:14;;;;;;;7.60;3.43;;;;;;;;;;5006601;28;20018;-58
2021/11/18 12:03:50;;;;;;;7.85;3.30;;;;;;;;;;5006969;28;20346;-58
2021/11/18 12:06:39;;;;;;;6.50;3.20;;;;;;;;;;5027288;28;20030;-58
2021/11/18 12:09:07;;;;;;;6.20;3.23;;;;;;;;;;5031496;28;20772;-57
2021/11/18 12:24:21;;;;;;;6.37;3.73;;;;;;;;;;5083003;27;2169390;-60
2021/11/18 12:27:07;;;;;;;6.13;3.20;;;;;;;;;;5084063;28;20058;-60
2021/11/18 12:29:39;;;;;;;5.82;3.60;;;;;;;;;;5083924;28;20280;-61
2021/11/18 12:32:14;;;;;;;7.30;3.40;;;;;;;;;;5084025;28;20123;-60
2021/11/18 12:34:51;;;;;;;5.65;2.45;;;;;;;;;;5089464;28;20292;-60
2021/11/18 12:37:41;;;;;;;6.77;2.97;;;;;;;;;;5130261;28;20377;-60
2021/11/18 12:40:08;;;;;;;6.43;2.80;;;;;;;;;;5092024;28;20256;-60
2021/11/18 12:42:53;;;;;;;5.73;2.87;;;;;;;;;;5130118;28;20319;-60
2021/11/18 12:45:35;;;;;;;5.55;2.90;;;;;;;;;;5121912;28;20272;-60
2021/11/18 12:48:17;;;;;;;5.17;2.90;;;;;;;;;;5105864;28;20028;-60
2021/11/18 12:50:47;;;;;;;5.47;3.00;;;;;;;;;;5103616;28;20617;-60
2021/11/18 12:53:17;;;;;;;9.03;3.30;;;;;;;;;;5119752;28;20362;-60
2021/11/18 12:55:46;;;;;;;5.80;2.87;;;;;;;;;;5124367;28;20270;-60
2021/11/18 12:58:28;;;;;;;6.63;2.93;;;;;;;;;;5127973;28;20760;-60
2021/11/18 13:01:02;;;;;;;9.90;4.00;;;;;;;;;;5129498;28;20313;-60
2021/11/18 13:03:44;;;;;;;9.07;4.03;;;;;;;;;;5111906;28;20483;-60
2021/11/18 13:06:12;;;;;;;12.47;3.30;;;;;;;;;;5109182;28;20103;-60
2021/11/18 13:08:42;;;;;;;8.80;3.37;;;;;;;;;;5109047;28;20307;-60
2021/11/18 13:11:27;;;;;;;7.57;3.23;;;;;;;;;;5103288;28;20669;-60
2021/11/18 13:14:09;;;;;;;5.90;3.10;;;;;;;;;;5083128;28;20619;-60
2021/11/18 13:16:48;;;;;;;8.20;3.13;;;;;;;;;;5083295;28;20494;-60
2021/11/18 13:19:23;;;;;;;6.00;3.50;;;;;;;;;;5086242;28;20746;-60
2021/11/18 13:21:52;;;;;;;7.80;3.57;;;;;;;;;;5129292;28;20287;-60
2021/11/18 13:24:37;;;;;;;10.53;3.50;;;;;;;;;;5121023;28;20319;-60
2021/11/18 13:27:04;;;;;;;9.77;4.55;;;;;;;;;;5115559;28;20305;-60
2021/11/18 13:29:32;;;;;;;10.73;4.17;;;;;;;;;;5112900;28;20023;-60
2021/11/18 13:31:59;;;;;;;19.50;5.37;;;;;;;;;;5091753;28;20323;-60
2021/11/18 13:34:48;;;;;;;11.67;5.10;;;;;;;;;;5090607;28;20741;-60
2021/11/18 13:37:15;;;;;;;8.10;4.67;;;;;;;;;;5088267;28;20257;-60
2021/11/18 13:39:42;;;;;;;12.73;4.53;;;;;;;;;;5089376;28;20694;-60
2021/11/18 13:42:24;;;;;;;9.60;4.13;;;;;;;;;;5092154;28;20765;-60
2021/11/18 13:44:54;;;;;;;16.97;4.13;;;;;;;;;;5099133;28;20579;-60
2021/11/18 13:47:21;;;;;;;11.57;4.00;;;;;;;;;;5100611;28;20280;-60
2021/11/18 13:49:49;;;;;;;11.13;3.97;;;;;;;;;;5099634;28;20276;-60
2021/11/18 13:52:25;;;;;;;11.93;4.87;;;;;;;;;;5114725;28;20403;-60
2021/11/18 13:54:54;;;;;;;6.57;4.00;;;;;;;;;;5110232;28;20051;-60
2021/11/18 13:57:35;;;;;;;8.57;4.07;;;;;;;;;;5109446;28;20382;-60
2021/11/18 14:00:06;;;;;;;5.57;3.80;;;;;;;;;;5102572;28;20089;-60
2021/11/18 14:02:43;;;;;;;6.83;4.43;;;;;;;;;;5088752;28;20028;-60
2021/11/18 14:05:14;;;;;;;6.67;3.40;;;;;;;;;;5093754;28;20377;-60
2021/11/18 14:07:43;;;;;;;7.03;3.77;;;;;;;;;;5094518;28;20555;-60
2021/11/18 14:10:12;;;;;;;7.87;3.93;;;;;;;;;;5114135;28;20358;-61
2021/11/18 14:12:42;;;;;;;12.67;3.77;;;;;;;;;;5114000;28;20126;-60
2021/11/18 14:15:14;;;;;;;7.20;3.57;;;;;;;;;;5114503;28;20023;-60
2021/11/18 14:17:52;;;;;;;6.63;3.23;;;;;;;;;;5108452;28;20083;-61
2021/11/18 14:20:28;;;;;;;5.70;3.37;;;;;;;;;;5088565;28;20073;-61
2021/11/18 14:23:09;;;;;;;5.90;3.63;;;;;;;;;;5088480;28;20048;-60
2021/11/18 14:25:38;;;;;;;5.07;3.33;;;;;;;;;;5089708;28;20032;-60
2021/11/18 14:28:10;;;;;;;7.53;3.47;;;;;;;;;;5096307;28;20023;-61
2021/11/18 14:30:51;;;;;;;4.50;3.43;;;;;;;;;;5114391;28;20092;-60
2021/11/18 14:33:20;;;;;;;8.20;3.43;;;;;;;;;;5114404;28;20393;-60
2021/11/18 14:36:10;;;;;;;5.63;3.13;;;;;;;;;;5113312;28;20136;-61
2021/11/18 14:38:39;;;;;;;6.20;3.87;;;;;;;;;;5103221;28;20063;-60
2021/11/18 14:41:14;;;;;;;8.70;3.73;;;;;;;;;;5092330;28;20408;-61
2021/11/18 14:43:53;;;;;;;10.00;4.93;;;;;;;;;;5108559;28;20020;-61
2021/11/18 14:46:31;;;;;;;9.80;5.40;;;;;;;;;;5108222;28;20031;-61
2021/11/18 14:49:03;;;;;;;9.40;5.27;;;;;;;;;;5112368;28;20100;-61
2021/11/18 14:51:32;;;;;;;9.37;5.23;;;;;;;;;;5106720;28;20019;-61
2021/11/18 14:54:03;;;;;;;9.80;5.70;;;;;;;;;;5093652;28;20389;-61
2021/11/18 14:56:32;;;;;;;8.73;5.20;;;;;;;;;;5095767;28;20390;-61
2021/11/18 14:59:00;;;;;;;8.83;5.37;;;;;;;;;;5093382;28;20063;-60
2021/11/18 15:01:28;;;;;;;17.30;7.70;;;;;;;;;;5088426;28;20466;-60
2021/11/18 15:03:57;;;;;;;14.00;7.47;;;;;;;;;;5087771;28;20466;-60
2021/11/18 15:06:26;;;;;;;15.70;9.03;;;;;;;;;;5087499;28;20020;-60
2021/11/18 15:09:00;;;;;;;17.83;8.57;;;;;;;;;;5087578;28;20060;-60
2021/11/18 15:11:30;;;;;;;17.48;8.57;;;;;;;;;;5090638;28;20021;-60
2021/11/18 15:13:58;;;;;;;17.63;9.77;;;;;;;;;;5092741;28;20043;-60
2021/11/18 15:16:26;;;;;;;14.30;8.13;;;;;;;;;;5092675;28;20031;-60